createdAt,value
2023-04-29T00:01:48.886Z,48.14
2023-04-29T00:04:17.223Z,46.83
2023-04-29T00:06:44.806Z,48.51
2023-04-29T00:09:12.211Z,46.60
2023-04-29T00:11:39.944Z,46.69
2023-04-29T00:14:07.300Z,46.87
2023-04-29T00:16:34.718Z,47.03
2023-04-29T00:19:02.656Z,46.59
2023-04-29T00:21:30.311Z,46.27
2023-04-29T00:23:58.060Z,47.57
2023-04-29T00:26:25.939Z,47.21
2023-04-29T00:28:53.679Z,47.36
2023-04-29T00:31:21.943Z,46.95
2023-04-29T00:33:49.702Z,47.72
2023-04-29T00:36:17.079Z,46.99
2023-04-29T00:38:44.702Z,47.17
2023-04-29T00:41:12.543Z,46.51
2023-04-29T00:43:39.958Z,46.03
2023-04-29T00:46:07.369Z,46.03
2023-04-29T00:48:35.084Z,44.96
2023-04-29T00:51:04.045Z,44.44
2023-04-29T00:53:31.779Z,43.56
2023-04-29T00:56:00.830Z,44.50
2023-04-29T00:58:33.565Z,44.40
2023-04-29T01:01:01.857Z,44.69
2023-04-29T01:03:30.750Z,44.41
2023-04-29T01:06:25.085Z,45.32
2023-04-29T01:09:01.882Z,45.04
2023-04-29T01:11:36.259Z,45.23
2023-04-29T01:14:04.828Z,45.83
2023-04-29T01:16:49.301Z,45.04
2023-04-29T01:19:34.211Z,45.25
2023-04-29T01:22:01.658Z,45.26
2023-04-29T01:24:29.983Z,45.97
2023-04-29T01:27:08.529Z,46.17
2023-04-29T01:29:52.057Z,47.22
2023-04-29T01:32:31.144Z,47.49
2023-04-29T01:35:06.014Z,48.35
2023-04-29T01:37:52.493Z,49.19
2023-04-29T01:40:26.573Z,48.88
2023-04-29T01:42:55.060Z,48.96
2023-04-29T01:45:23.350Z,48.62
2023-04-29T01:47:53.712Z,48.17
2023-04-29T01:50:21.709Z,48.59
2023-04-29T01:52:49.488Z,48.26
2023-04-29T01:55:17.035Z,48.42
2023-04-29T01:57:45.212Z,48.36
2023-04-29T02:00:13.756Z,48.31
2023-04-29T02:02:42.338Z,48.35
2023-04-29T02:05:10.132Z,48.27
2023-04-29T02:07:40.244Z,47.46
2023-04-29T02:10:08.260Z,47.84
2023-04-29T02:12:36.586Z,47.24
2023-04-29T02:15:04.921Z,46.85
2023-04-29T02:17:34.121Z,46.75
2023-04-29T02:20:01.558Z,46.60
2023-04-29T02:22:29.287Z,46.90
2023-04-29T02:24:58.440Z,46.70
2023-04-29T02:27:26.707Z,47.10
2023-04-29T02:29:54.904Z,48.99
2023-04-29T02:32:22.731Z,47.12
2023-04-29T02:34:50.555Z,47.10
2023-04-29T02:37:17.968Z,47.10
2023-04-29T02:39:47.120Z,47.89
2023-04-29T02:42:14.800Z,47.05
2023-04-29T02:44:42.638Z,47.10
2023-04-29T02:47:10.079Z,47.40
2023-04-29T02:49:38.563Z,48.53
2023-04-29T02:52:05.936Z,49.22
2023-04-29T02:54:33.575Z,49.84
2023-04-29T02:57:01.320Z,49.76
2023-04-29T02:59:28.708Z,50.48
2023-04-29T03:01:56.129Z,50.74
2023-04-29T03:04:24.028Z,50.10
2023-04-29T03:06:51.534Z,47.74
2023-04-29T03:09:18.984Z,48.94
2023-04-29T03:11:46.809Z,47.76
2023-04-29T03:14:14.417Z,49.93
2023-04-29T03:16:42.759Z,49.00
2023-04-29T03:19:10.621Z,47.08
2023-04-29T03:21:38.002Z,47.84
2023-04-29T03:24:05.891Z,46.90
2023-04-29T03:26:33.863Z,47.37
2023-04-29T03:29:01.479Z,45.80
2023-04-29T03:31:29.013Z,45.70
2023-04-29T03:33:56.683Z,46.33
2023-04-29T03:36:24.235Z,46.65
2023-04-29T03:38:51.720Z,45.86
2023-04-29T03:41:19.721Z,44.98
2023-04-29T03:43:47.937Z,44.55
2023-04-29T03:46:15.465Z,44.95
2023-04-29T03:48:43.271Z,44.24
2023-04-29T03:51:10.898Z,44.77
2023-04-29T03:53:38.609Z,44.32
2023-04-29T03:56:07.046Z,43.95
2023-04-29T03:58:34.505Z,44.14
2023-04-29T04:01:02.184Z,44.13
2023-04-29T04:03:32.695Z,44.27
2023-04-29T04:06:00.595Z,44.26
2023-04-29T04:08:28.394Z,44.18
2023-04-29T04:11:02.793Z,44.04
2023-04-29T04:13:30.497Z,44.07
2023-04-29T04:15:58.886Z,43.69
2023-04-29T04:18:26.751Z,43.94
2023-04-29T04:20:54.236Z,44.08
2023-04-29T04:23:21.900Z,44.03
2023-04-29T04:25:49.554Z,44.08
2023-04-29T04:28:17.432Z,44.30
2023-04-29T04:30:46.561Z,43.95
2023-04-29T04:33:14.002Z,44.21
2023-04-29T04:35:43.303Z,44.26
2023-04-29T04:38:15.232Z,43.93
2023-04-29T04:40:43.086Z,43.79
2023-04-29T04:43:11.584Z,44.03
2023-04-29T04:45:40.499Z,44.44
2023-04-29T04:48:08.001Z,44.69
2023-04-29T04:50:36.620Z,45.51
2023-04-29T04:53:04.264Z,45.27
2023-04-29T04:55:33.542Z,45.68
2023-04-29T04:58:01.694Z,46.43
2023-04-29T05:00:29.366Z,45.57
2023-04-29T05:02:56.880Z,45.27
2023-04-29T05:05:24.788Z,45.36
2023-04-29T05:07:52.239Z,45.54
2023-04-29T05:10:20.994Z,45.81
2023-04-29T05:12:48.969Z,45.59
2023-04-29T05:15:17.036Z,45.38
2023-04-29T05:17:44.731Z,44.97
2023-04-29T05:20:12.688Z,44.84
2023-04-29T05:22:40.134Z,45.14
2023-04-29T05:25:08.399Z,45.19
2023-04-29T05:27:36.236Z,45.19
2023-04-29T05:30:04.787Z,45.08
2023-04-29T05:32:33.828Z,45.21
2023-04-29T05:35:01.672Z,46.35
2023-04-29T05:37:31.260Z,46.14
2023-04-29T05:40:01.754Z,45.70
2023-04-29T05:42:30.317Z,45.52
2023-04-29T05:44:57.791Z,45.38
2023-04-29T05:47:25.267Z,45.40
2023-04-29T05:49:53.204Z,45.85
2023-04-29T05:52:21.008Z,45.20
2023-04-29T05:54:49.312Z,45.86
2023-04-29T05:57:17.588Z,46.41
2023-04-29T05:59:45.112Z,44.80
2023-04-29T06:02:12.744Z,44.85
2023-04-29T06:04:43.485Z,44.39
2023-04-29T06:07:12.578Z,43.94
2023-04-29T06:09:40.421Z,43.72
2023-04-29T06:12:07.862Z,42.86
2023-04-29T06:14:35.281Z,43.25
2023-04-29T06:17:04.037Z,42.32
2023-04-29T06:19:33.661Z,42.83
2023-04-29T06:22:01.181Z,42.29
2023-04-29T06:24:28.946Z,41.41
2023-04-29T06:26:57.605Z,42.71
2023-04-29T06:29:26.367Z,42.04
2023-04-29T06:31:54.351Z,41.66
2023-04-29T06:34:22.200Z,41.93
2023-04-29T06:36:50.751Z,42.67
2023-04-29T06:39:18.600Z,42.32
2023-04-29T06:41:46.723Z,42.38
2023-04-29T06:44:14.176Z,43.25
2023-04-29T06:46:41.874Z,42.43
2023-04-29T06:49:10.156Z,42.95
2023-04-29T06:51:38.071Z,42.38
2023-04-29T06:54:05.870Z,44.08
2023-04-29T06:56:33.293Z,42.85
2023-04-29T06:59:00.721Z,42.93
2023-04-29T07:01:28.685Z,43.94
2023-04-29T07:03:56.952Z,43.40
2023-04-29T07:06:24.613Z,43.80
2023-04-29T07:08:54.872Z,43.56
2023-04-29T07:11:27.062Z,43.78
2023-04-29T07:13:54.773Z,43.89
2023-04-29T07:16:22.340Z,42.81
2023-04-29T07:18:49.873Z,43.07
2023-04-29T07:21:17.574Z,42.96
2023-04-29T07:23:45.097Z,42.60
2023-04-29T07:26:16.530Z,42.68
2023-04-29T07:28:45.068Z,43.41
2023-04-29T07:31:14.844Z,43.22
2023-04-29T07:33:42.333Z,43.14
2023-04-29T07:36:11.918Z,42.07
2023-04-29T07:38:40.218Z,42.42
2023-04-29T07:41:07.625Z,41.68
2023-04-29T07:43:35.372Z,42.68
2023-04-29T07:46:02.791Z,42.29
2023-04-29T07:48:30.240Z,41.38
2023-04-29T07:50:57.907Z,41.13
2023-04-29T07:53:25.315Z,42.21
2023-04-29T07:55:52.865Z,41.28
2023-04-29T07:58:20.909Z,42.55
2023-04-29T08:00:48.618Z,41.12
2023-04-29T08:03:16.574Z,39.98
2023-04-29T08:05:45.342Z,39.33
2023-04-29T08:08:15.394Z,39.60
2023-04-29T08:10:44.294Z,38.06
2023-04-29T08:13:11.737Z,38.75
2023-04-29T08:15:40.213Z,39.38
2023-04-29T08:18:08.000Z,40.73
2023-04-29T08:20:35.724Z,39.94
2023-04-29T08:23:03.100Z,39.65
2023-04-29T08:25:30.902Z,38.79
2023-04-29T08:27:58.287Z,39.42
2023-04-29T08:30:25.689Z,38.94
2023-04-29T08:32:53.427Z,39.15
2023-04-29T08:35:20.942Z,37.78
2023-04-29T08:37:48.579Z,39.06
2023-04-29T08:40:16.369Z,38.02
2023-04-29T08:42:46.833Z,38.28
2023-04-29T08:45:19.617Z,37.94
2023-04-29T08:47:47.732Z,36.64
2023-04-29T08:50:15.306Z,36.53
2023-04-29T08:52:43.063Z,35.98
2023-04-29T08:55:10.534Z,36.43
2023-04-29T08:57:39.852Z,36.52
2023-04-29T09:00:08.921Z,35.69
2023-04-29T09:02:43.702Z,36.74
2023-04-29T09:05:12.795Z,36.75
2023-04-29T09:07:42.035Z,36.03
2023-04-29T09:10:10.041Z,35.29
2023-04-29T09:12:37.690Z,35.18
2023-04-29T09:15:05.594Z,37.43
2023-04-29T09:17:46.172Z,36.39
2023-04-29T09:20:20.070Z,37.30
2023-04-29T09:22:58.767Z,36.81
2023-04-29T09:25:27.306Z,35.28
2023-04-29T09:27:55.699Z,35.10
2023-04-29T09:30:23.497Z,35.82
2023-04-29T09:33:08.761Z,36.26
2023-04-29T09:35:36.395Z,35.19
2023-04-29T09:38:14.617Z,35.32
2023-04-29T09:40:50.716Z,35.71
2023-04-29T09:43:26.254Z,35.62
2023-04-29T09:45:53.873Z,34.31
2023-04-29T09:48:21.337Z,34.35
2023-04-29T09:51:01.631Z,35.12
2023-04-29T09:53:30.474Z,34.10
2023-04-29T09:56:02.572Z,34.62
2023-04-29T09:58:34.112Z,33.92
2023-04-29T10:01:03.022Z,33.23
2023-04-29T10:03:33.734Z,33.70
2023-04-29T10:06:02.672Z,32.50
2023-04-29T10:08:30.989Z,33.24
2023-04-29T10:11:05.957Z,33.33
2023-04-29T10:13:35.222Z,33.52
2023-04-29T10:16:21.366Z,33.55
2023-04-29T10:19:00.564Z,34.26
2023-04-29T10:21:32.263Z,33.70
2023-04-29T10:24:02.314Z,34.64
2023-04-29T10:26:32.011Z,34.66
2023-04-29T10:29:00.334Z,33.40
2023-04-29T10:31:28.083Z,33.30
2023-04-29T10:33:57.936Z,33.38
2023-04-29T10:36:26.258Z,34.66
2023-04-29T10:38:55.439Z,34.13
2023-04-29T10:41:26.969Z,33.75
2023-04-29T10:43:55.263Z,35.07
2023-04-29T10:46:26.445Z,34.91
2023-04-29T10:49:04.088Z,33.81
2023-04-29T10:51:33.896Z,32.95
2023-04-29T10:54:04.395Z,30.58
2023-04-29T10:56:44.827Z,31.02
2023-04-29T10:59:14.387Z,33.06
2023-04-29T11:01:46.961Z,32.46
2023-04-29T11:04:15.695Z,31.24
2023-04-29T11:06:47.454Z,31.67
2023-04-29T11:09:19.655Z,32.03
2023-04-29T11:11:54.467Z,30.79
2023-04-29T11:14:27.560Z,31.66
2023-04-29T11:17:01.452Z,32.63
2023-04-29T11:19:34.558Z,32.06
2023-04-29T11:22:28.583Z,31.40
2023-04-29T11:24:57.879Z,32.46
2023-04-29T11:27:36.357Z,34.45
2023-04-29T11:30:05.471Z,32.73
2023-04-29T11:32:36.848Z,33.75
2023-04-29T11:35:12.940Z,32.72
2023-04-29T11:37:42.007Z,32.66
2023-04-29T11:40:10.047Z,32.65
2023-04-29T11:42:48.198Z,32.24
2023-04-29T11:45:18.769Z,32.07
2023-04-29T11:47:47.888Z,32.93
2023-04-29T11:50:19.210Z,32.64
2023-04-29T11:52:47.761Z,32.99
2023-04-29T11:55:15.475Z,34.16
2023-04-29T11:57:43.762Z,33.57
2023-04-29T12:00:14.603Z,34.02
2023-04-29T12:02:47.733Z,33.28
2023-04-29T12:05:17.253Z,33.02
2023-04-29T12:07:45.574Z,32.08
2023-04-29T12:10:13.061Z,32.06
2023-04-29T12:12:47.399Z,32.53
2023-04-29T12:15:15.284Z,32.41
2023-04-29T12:17:42.847Z,32.49
2023-04-29T12:20:11.095Z,32.54
2023-04-29T12:22:39.068Z,32.01
2023-04-29T12:25:08.058Z,31.73
2023-04-29T12:27:36.216Z,33.29
2023-04-29T12:30:08.258Z,33.81
2023-04-29T12:32:36.962Z,33.20
2023-04-29T12:35:05.012Z,30.98
2023-04-29T12:37:33.917Z,31.33
2023-04-29T12:40:01.490Z,31.11
2023-04-29T12:42:34.998Z,32.37
2023-04-29T12:45:02.658Z,32.19
2023-04-29T12:47:37.638Z,31.53
2023-04-29T12:50:07.246Z,32.14
2023-04-29T12:52:36.752Z,31.69
2023-04-29T12:55:05.105Z,33.09
2023-04-29T12:57:32.570Z,32.72
2023-04-29T13:00:00.370Z,32.29
2023-04-29T13:02:28.531Z,31.42
2023-04-29T13:04:56.481Z,31.92
2023-04-29T13:07:24.451Z,31.86
2023-04-29T13:09:51.851Z,32.12
2023-04-29T13:12:19.275Z,31.90
2023-04-29T13:14:46.970Z,31.32
2023-04-29T13:17:14.880Z,31.22
2023-04-29T13:19:51.144Z,30.73
2023-04-29T13:22:19.920Z,30.98
2023-04-29T13:24:47.786Z,29.68
2023-04-29T13:27:15.243Z,30.48
2023-04-29T13:29:42.896Z,30.96
2023-04-29T13:32:10.548Z,31.84
2023-04-29T13:34:38.075Z,32.22
2023-04-29T13:37:06.151Z,32.40
2023-04-29T13:39:38.114Z,31.55
2023-04-29T13:42:06.630Z,31.35
2023-04-29T13:44:47.502Z,31.08
2023-04-29T13:47:25.612Z,31.18
2023-04-29T13:50:23.847Z,31.40
2023-04-29T13:55:39.494Z,30.37
2023-04-29T13:58:43.504Z,29.45
2023-04-29T14:01:17.163Z,29.84
2023-04-29T14:03:35.989Z,30.59
2023-04-29T14:06:03.875Z,30.28
2023-04-29T14:08:31.264Z,30.94
2023-04-29T14:10:59.116Z,31.39
2023-04-29T14:13:26.640Z,30.43
2023-04-29T14:15:54.611Z,30.99
2023-04-29T14:18:22.425Z,33.19
2023-04-29T14:20:49.865Z,32.26
2023-04-29T14:23:17.272Z,32.15
2023-04-29T14:25:45.049Z,31.82
2023-04-29T14:28:12.700Z,31.49
2023-04-29T14:30:41.111Z,31.50
2023-04-29T14:33:09.154Z,31.32
2023-04-29T14:35:36.596Z,32.06
2023-04-29T14:38:03.995Z,31.83
2023-04-29T14:40:31.772Z,31.22
2023-04-29T14:42:59.164Z,31.46
2023-04-29T14:45:26.569Z,31.19
2023-04-29T14:47:54.233Z,31.02
2023-04-29T14:50:23.271Z,31.79
2023-04-29T14:52:50.946Z,31.42
2023-04-29T14:55:18.666Z,31.07
2023-04-29T14:57:46.315Z,30.75
2023-04-29T15:00:15.079Z,31.34
2023-04-29T15:02:43.056Z,31.17
2023-04-29T15:05:10.557Z,30.89
2023-04-29T15:07:37.994Z,30.62
2023-04-29T15:10:07.858Z,32.13
2023-04-29T15:12:35.287Z,32.99
2023-04-29T15:15:02.709Z,32.04
2023-04-29T15:17:30.689Z,32.43
2023-04-29T15:19:58.136Z,31.62
2023-04-29T15:22:25.574Z,31.89
2023-04-29T15:24:53.336Z,31.39
2023-04-29T15:27:21.513Z,31.24
2023-04-29T15:29:48.956Z,31.98
2023-04-29T15:32:17.200Z,31.74
2023-04-29T15:34:44.644Z,31.94
2023-04-29T15:37:12.264Z,31.42
2023-04-29T15:39:39.983Z,31.20
2023-04-29T15:42:07.532Z,31.30
2023-04-29T15:44:34.907Z,32.00
2023-04-29T15:47:02.640Z,32.60
2023-04-29T15:49:31.073Z,33.35
2023-04-29T15:51:58.486Z,33.50
2023-04-29T15:54:26.194Z,33.30
2023-04-29T15:56:55.591Z,32.74
2023-04-29T15:59:23.057Z,31.99
2023-04-29T16:01:50.857Z,32.24
2023-04-29T16:04:18.660Z,31.91
2023-04-29T16:06:46.182Z,32.03
2023-04-29T16:09:14.032Z,32.74
2023-04-29T16:11:42.080Z,32.55
2023-04-29T16:14:09.543Z,32.48
2023-04-29T16:16:37.099Z,32.84
2023-04-29T16:19:04.819Z,32.77
2023-04-29T16:21:32.922Z,33.77
2023-04-29T16:24:00.325Z,33.81
2023-04-29T16:26:28.268Z,34.54
2023-04-29T16:28:55.933Z,34.65
2023-04-29T16:31:23.648Z,34.84
2023-04-29T16:33:51.365Z,34.69
2023-04-29T16:36:18.984Z,34.31
2023-04-29T16:38:46.498Z,33.74
2023-04-29T16:41:14.160Z,33.63
2023-04-29T16:43:41.552Z,33.71
2023-04-29T16:46:09.932Z,32.80
2023-04-29T16:48:37.715Z,33.21
2023-04-29T16:51:05.170Z,32.77
2023-04-29T16:53:32.586Z,33.81
2023-04-29T16:56:00.478Z,32.95
2023-04-29T16:58:28.979Z,33.23
2023-04-29T17:00:56.573Z,33.11
2023-04-29T17:03:24.372Z,34.45
2023-04-29T17:05:51.896Z,33.75
2023-04-29T17:08:19.390Z,33.60
2023-04-29T17:10:47.127Z,34.28
2023-04-29T17:13:14.744Z,33.71
2023-04-29T17:15:42.243Z,33.69
2023-04-29T17:18:09.980Z,34.14
2023-04-29T17:20:37.471Z,34.05
2023-04-29T17:23:05.634Z,34.43
2023-04-29T17:25:33.568Z,34.76
2023-04-29T17:28:01.110Z,34.75
2023-04-29T17:30:28.607Z,34.46
2023-04-29T17:32:56.471Z,34.33
2023-04-29T17:35:23.999Z,35.05
2023-04-29T17:37:51.418Z,35.19
2023-04-29T17:40:19.412Z,35.05
2023-04-29T17:42:46.846Z,35.95
2023-04-29T17:45:14.365Z,36.50
2023-04-29T17:47:42.149Z,35.71
2023-04-29T17:50:09.634Z,35.38
2023-04-29T17:52:37.203Z,35.48
2023-04-29T17:55:05.498Z,35.56
2023-04-29T17:57:33.059Z,35.79
2023-04-29T18:00:00.926Z,36.29
2023-04-29T18:02:28.640Z,35.89
2023-04-29T18:04:56.442Z,35.88
2023-04-29T18:07:24.063Z,35.86
2023-04-29T18:09:51.718Z,36.04
2023-04-29T18:12:19.824Z,36.38
2023-04-29T18:14:48.819Z,36.55
2023-04-29T18:17:16.380Z,36.78
2023-04-29T18:19:46.851Z,37.05
2023-04-29T18:22:14.427Z,37.04
2023-04-29T18:24:41.873Z,37.05
2023-04-29T18:27:09.622Z,36.82
2023-04-29T18:29:37.059Z,37.24
2023-04-29T18:32:07.242Z,37.02
2023-04-29T18:34:36.167Z,37.12
2023-04-29T18:37:03.598Z,37.87
2023-04-29T18:39:31.015Z,38.22
2023-04-29T18:41:59.080Z,38.37
2023-04-29T18:44:27.987Z,38.69
2023-04-29T18:46:55.697Z,38.96
2023-04-29T18:49:23.382Z,39.71
2023-04-29T18:51:51.072Z,40.07
2023-04-29T18:54:18.806Z,39.80
2023-04-29T18:56:48.358Z,40.01
2023-04-29T18:59:19.314Z,40.46
2023-04-29T19:01:48.356Z,41.07
2023-04-29T19:04:16.678Z,41.23
2023-04-29T19:06:44.600Z,41.80
2023-04-29T19:09:13.589Z,41.70
2023-04-29T19:11:41.193Z,41.88
2023-04-29T19:14:08.630Z,41.97
2023-04-29T19:16:37.371Z,42.26
2023-04-29T19:19:05.168Z,41.76
2023-04-29T19:21:35.892Z,41.95
2023-04-29T19:24:03.788Z,41.83
2023-04-29T19:26:32.991Z,41.80
2023-04-29T19:29:02.801Z,41.80
2023-04-29T19:31:30.609Z,41.75
2023-04-29T19:33:58.071Z,41.98
2023-04-29T19:36:26.248Z,42.87
2023-04-29T19:38:54.092Z,42.82
2023-04-29T19:41:21.640Z,42.63
2023-04-29T19:43:49.322Z,42.61
2023-04-29T19:46:17.104Z,43.18
2023-04-29T19:48:44.586Z,42.94
2023-04-29T19:51:12.256Z,42.99
2023-04-29T19:53:40.833Z,42.99
2023-04-29T19:56:08.406Z,43.17
2023-04-29T19:58:36.028Z,43.39
2023-04-29T20:01:04.045Z,43.77
2023-04-29T20:03:32.814Z,43.78
2023-04-29T20:06:00.306Z,44.52
2023-04-29T20:08:27.802Z,44.32
2023-04-29T20:10:55.584Z,44.07
2023-04-29T20:13:23.003Z,44.15
2023-04-29T20:15:50.854Z,43.66
2023-04-29T20:18:18.568Z,43.87
2023-04-29T20:20:45.983Z,44.17
2023-04-29T20:23:13.647Z,44.20
2023-04-29T20:25:41.439Z,44.55
2023-04-29T20:28:09.400Z,44.44
2023-04-29T20:30:36.818Z,44.38
2023-04-29T20:33:05.328Z,44.20
2023-04-29T20:35:33.983Z,45.58
2023-04-29T20:38:01.470Z,45.35
2023-04-29T20:40:29.236Z,45.63
2023-04-29T20:42:57.297Z,45.02
2023-04-29T20:45:24.979Z,44.81
2023-04-29T20:47:53.042Z,45.00
2023-04-29T20:50:20.830Z,44.61
2023-04-29T20:52:49.460Z,44.37
2023-04-29T20:55:17.306Z,44.59
2023-04-29T20:57:44.727Z,44.65
2023-04-29T21:00:12.626Z,44.67
2023-04-29T21:02:40.337Z,44.63
2023-04-29T21:05:09.942Z,44.80
2023-04-29T21:07:37.661Z,45.11
2023-04-29T21:10:05.732Z,45.28
2023-04-29T21:12:33.305Z,45.22
2023-04-29T21:15:00.766Z,45.67
2023-04-29T21:17:28.738Z,45.50
2023-04-29T21:19:56.691Z,45.56
2023-04-29T21:22:24.560Z,45.69
2023-04-29T21:24:52.410Z,46.05
2023-04-29T21:27:19.796Z,46.58
2023-04-29T21:29:47.206Z,46.77
2023-04-29T21:32:18.255Z,46.83
2023-04-29T21:34:45.679Z,46.92
2023-04-29T21:37:13.283Z,46.73
2023-04-29T21:39:40.991Z,46.86
2023-04-29T21:42:08.972Z,46.52
2023-04-29T21:44:37.901Z,46.48
2023-04-29T21:47:06.866Z,46.64
2023-04-29T21:49:34.560Z,48.31
2023-04-29T21:52:02.064Z,46.93
2023-04-29T21:54:29.768Z,46.32
2023-04-29T21:56:58.030Z,46.22
2023-04-29T21:59:25.477Z,46.10
2023-04-29T22:02:00.340Z,45.97
2023-04-29T22:04:28.287Z,45.51
2023-04-29T22:06:56.920Z,45.84
2023-04-29T22:09:24.461Z,45.61
2023-04-29T22:11:52.201Z,45.61
2023-04-29T22:14:19.579Z,45.75
2023-04-29T22:16:47.161Z,45.99
2023-04-29T22:19:14.878Z,45.95
2023-04-29T22:21:43.285Z,46.13
2023-04-29T22:24:11.011Z,45.81
2023-04-29T22:26:38.661Z,45.80
2023-04-29T22:29:06.485Z,45.52
2023-04-29T22:31:33.988Z,45.68
2023-04-29T22:34:01.703Z,45.43
2023-04-29T22:36:29.233Z,45.31
2023-04-29T22:38:56.616Z,45.56
2023-04-29T22:41:24.393Z,45.33
2023-04-29T22:43:57.047Z,45.28
2023-04-29T22:46:25.541Z,45.39
2023-04-29T22:48:53.087Z,45.69
2023-04-29T22:51:20.703Z,45.44
2023-04-29T22:53:48.560Z,45.39
2023-04-29T22:56:15.964Z,45.38
2023-04-29T22:58:43.378Z,45.49
2023-04-29T23:01:12.192Z,45.56
2023-04-29T23:03:39.783Z,45.63
2023-04-29T23:06:07.339Z,45.78
2023-04-29T23:08:35.088Z,46.04
2023-04-29T23:11:02.536Z,47.17
2023-04-29T23:13:29.953Z,46.56
2023-04-29T23:15:59.459Z,46.62
2023-04-29T23:18:26.924Z,47.60
2023-04-29T23:20:55.483Z,46.72
2023-04-29T23:23:23.322Z,46.24
2023-04-29T23:25:50.807Z,46.52
2023-04-29T23:28:18.267Z,46.47
2023-04-29T23:30:49.092Z,46.50
2023-04-29T23:33:16.637Z,47.29
2023-04-29T23:35:53.627Z,47.52
2023-04-29T23:38:21.467Z,47.60
2023-04-29T23:40:49.369Z,47.06
2023-04-29T23:43:16.823Z,47.96
2023-04-29T23:45:45.855Z,47.60
2023-04-29T23:48:13.622Z,47.85
2023-04-29T23:50:41.015Z,47.61
2023-04-29T23:53:08.726Z,48.71
2023-04-29T23:55:36.219Z,47.67
2023-04-29T23:58:04.123Z,47.85
